»·PEaware :: AXX1010 KBOS-KDFW

AXX1010 :: KBOS-KDFW

FLIGHT INFORMATION

Flight Status: Arrived
Operator: Unknown
More flights by this operator :: More flights under this callsign
Pilot: (1427769181)
Aircraft: AIRBUS A320
(A320)
More flights by this aircraft type
Origin: KBOS Logan Intl
United States
Destination: KDFW Dallas-Ft Worth Intl
United States
More flights between these airports :: More routes between these airports
Route: GLYDE BAF J77 SAX J6 BYP5
File this flight plan on PilotEdge
Remarks: ZLA I-10 CERT
Altitude:
(Current/Filed)
36,000ft
Speed:
(Current/Filed)
450kts
Departed: 14-May-11 07:31 AM
Arrived: 14-May-11 11:34 AM
Distance/Time
Traveled:
1354nm/4:03
Distance/Time
To Go:
Arrived

Flight Plot

Page will automatically refresh every two minutes.


Map Options




Map Legend


Flown Route
Filed Route
Departure Airport
Arrival Airport
Navaid (VOR, NDB)
Fix

Horizontal Profiles

Position Reports

Time Latitude Longitude Heading Altitude Ground
Speed
14-May-11 07:16 42.363752 -71.022084 27 32ft 0kts
14-May-11 07:17 42.363752 -71.022084 27 32ft 0kts
14-May-11 07:18 42.363752 -71.022084 27 32ft 0kts
14-May-11 07:19 42.363752 -71.022084 27 32ft 0kts
14-May-11 07:20 42.363752 -71.022084 27 32ft 0kts
14-May-11 07:21 42.363752 -71.022084 27 32ft 0kts
14-May-11 07:22 42.363752 -71.022084 27 32ft 0kts
14-May-11 07:23 42.363752 -71.022084 27 32ft 0kts
14-May-11 07:24 42.363752 -71.022084 27 32ft 0kts
14-May-11 07:25 42.363529 -71.022241 27 32ft 4kts
14-May-11 07:26 42.363063 -71.022744 318 32ft 3kts
14-May-11 07:27 42.360159 -71.020480 134 32ft 27kts
14-May-11 07:28 42.358031 -71.016116 102 32ft 0kts
14-May-11 07:29 42.358031 -71.016116 102 32ft 0kts
14-May-11 07:30 42.357991 -71.014362 43 32ft 9kts
14-May-11 07:31 42.366682 -71.009963 20 33ft 148kts
14-May-11 07:32 42.408198 -70.993732 26 2722ft 153kts
14-May-11 07:34 42.500784 -70.938543 24 1685ft 212kts
14-May-11 07:35 42.547193 -70.911862 40 4472ft 257kts
14-May-11 07:36 42.527707 -70.843442 176 5832ft 256kts
14-May-11 07:37 42.477135 -70.907978 244 7562ft 266kts
14-May-11 07:38 42.449147 -70.999031 244 9398ft 262kts
14-May-11 07:39 42.427314 -71.063066 244 10705ft 264kts
14-May-11 07:40 42.395730 -71.152122 244 12518ft 267kts
14-May-11 07:41 42.391904 -71.163014 244 12738ft 267kts
14-May-11 07:42 42.391904 -71.163014 244 12738ft 267kts
14-May-11 07:43 42.373881 -71.214476 244 13771ft 269kts
14-May-11 07:44 42.358083 -71.260015 244 14676ft 272kts
14-May-11 07:45 42.358083 -71.260015 244 14676ft 272kts
14-May-11 07:46 42.328476 -71.352023 252 16439ft 324kts
14-May-11 07:47 42.309462 -71.472946 257 18269ft 334kts
14-May-11 07:48 42.293960 -71.598085 257 20087ft 343kts
14-May-11 07:49 42.278440 -71.725680 257 21894ft 349kts
14-May-11 07:50 42.262832 -71.856080 258 23696ft 358kts
14-May-11 07:51 42.247617 -71.990571 258 25491ft 370kts
14-May-11 07:52 42.231712 -72.129265 258 27279ft 381kts
14-May-11 07:53 42.215168 -72.272058 258 29053ft 394kts
14-May-11 07:54 42.197863 -72.419572 258 30822ft 405kts
14-May-11 07:55 42.180543 -72.563314 257 32512ft 412kts
14-May-11 07:56 42.161201 -72.711608 247 34227ft 408kts
14-May-11 07:57 42.095258 -72.830754 232 35939ft 399kts
14-May-11 07:58 42.026231 -72.948629 232 35990ft 417kts
14-May-11 07:59 41.954660 -73.070426 232 35985ft 422kts
14-May-11 08:00 41.882545 -73.192562 232 35983ft 422kts
14-May-11 08:02 41.737036 -73.437570 232 35979ft 422kts
14-May-11 08:03 41.668293 -73.552098 231 35986ft 422kts
14-May-11 08:04 41.594981 -73.673884 231 35985ft 423kts
14-May-11 08:05 41.521625 -73.795673 231 35983ft 423kts
14-May-11 08:06 41.447901 -73.917631 231 35982ft 423kts
14-May-11 08:07 41.381544 -74.027010 231 35980ft 423kts
14-May-11 08:08 41.313190 -74.139242 231 35987ft 423kts
14-May-11 08:09 41.240692 -74.257831 231 35985ft 423kts
14-May-11 08:10 41.166655 -74.378458 232 35983ft 423kts
14-May-11 08:12 41.077094 -74.523757 231 35979ft 423kts
14-May-11 08:14 41.077094 -74.523757 231 35979ft 423kts
14-May-11 08:15 41.077094 -74.523757 231 35979ft 423kts
14-May-11 08:16 41.077094 -74.523757 231 35979ft 423kts
14-May-11 08:17 41.077094 -74.523757 231 35979ft 423kts
14-May-11 08:18 41.077094 -74.523757 231 35979ft 423kts
14-May-11 08:19 41.077094 -74.523757 231 35979ft 423kts
14-May-11 08:20 41.077094 -74.523757 231 35979ft 423kts
14-May-11 08:21 41.077094 -74.523757 231 35979ft 423kts
14-May-11 08:22 41.040899 -74.567410 218 36007ft 423kts
14-May-11 08:23 40.937619 -74.675686 220 35988ft 425kts
14-May-11 08:24 40.863087 -74.754143 220 35986ft 426kts
14-May-11 08:25 40.780387 -74.861179 240 36013ft 420kts
14-May-11 08:26 40.721405 -74.992738 239 35983ft 423kts
14-May-11 08:27 40.661234 -75.125386 239 35982ft 423kts
14-May-11 08:28 40.601570 -75.256358 239 35980ft 423kts
14-May-11 08:29 40.541198 -75.388287 238 35978ft 423kts
14-May-11 08:30 40.480937 -75.519389 239 35976ft 423kts
14-May-11 08:31 40.426337 -75.636706 238 35984ft 423kts
14-May-11 08:32 40.367558 -75.763430 238 35982ft 424kts
14-May-11 08:33 40.331211 -75.841578 238 35989ft 424kts
14-May-11 08:34 40.270584 -75.971579 238 35988ft 424kts
14-May-11 08:35 40.209110 -76.102776 239 35986ft 424kts
14-May-11 08:36 40.148318 -76.232055 238 35984ft 424kts
14-May-11 08:37 40.088381 -76.360745 239 35982ft 424kts
14-May-11 08:38 40.028410 -76.490752 239 35981ft 424kts
14-May-11 08:39 39.972500 -76.610500 238 35989ft 424kts
14-May-11 08:40 39.911823 -76.740770 238 35987ft 424kts
14-May-11 08:41 39.842097 -76.889978 238 35985ft 424kts
14-May-11 08:42 39.799094 -76.981610 238 35984ft 424kts
14-May-11 08:43 39.761666 -77.061212 238 35983ft 424kts
14-May-11 08:44 39.701144 -77.189484 238 35981ft 424kts
14-May-11 08:45 39.639889 -77.318696 238 35979ft 424kts
14-May-11 08:46 39.579417 -77.445811 238 35978ft 424kts
14-May-11 08:47 39.520771 -77.568008 237 35986ft 424kts
14-May-11 08:48 39.459679 -77.694874 238 35984ft 424kts
14-May-11 08:49 39.397948 -77.823036 238 35982ft 424kts
14-May-11 08:50 39.344823 -77.951556 242 35988ft 424kts
14-May-11 08:51 39.295533 -78.075850 242 35986ft 425kts
14-May-11 08:52 39.243935 -78.205274 242 35985ft 425kts
14-May-11 08:53 39.190176 -78.339486 242 35983ft 425kts
14-May-11 08:54 39.136772 -78.472312 242 35981ft 424kts
14-May-11 08:55 39.085067 -78.599388 241 35990ft 425kts
14-May-11 08:56 39.030991 -78.732440 242 35988ft 425kts
14-May-11 08:57 38.976426 -78.866360 242 35986ft 425kts
14-May-11 08:58 38.922037 -78.999235 242 35984ft 425kts
14-May-11 08:59 38.867164 -79.132756 242 35983ft 425kts
14-May-11 09:00 38.826996 -79.272097 255 35984ft 425kts
14-May-11 09:01 38.800593 -79.420738 255 35980ft 427kts
14-May-11 09:02 38.775213 -79.560580 254 35988ft 427kts
14-May-11 09:03 38.752433 -79.683945 255 35986ft 427kts
14-May-11 09:04 38.725391 -79.831293 255 35985ft 427kts
14-May-11 09:05 38.698183 -79.978666 255 35983ft 427kts
14-May-11 09:06 38.670807 -80.125730 255 35981ft 427kts
14-May-11 09:07 38.645352 -80.261459 255 35980ft 427kts
14-May-11 09:08 38.617470 -80.409076 255 35978ft 427kts
14-May-11 09:09 38.590631 -80.550048 254 35982ft 426kts
14-May-11 09:10 38.561975 -80.697514 254 35985ft 427kts
14-May-11 09:11 38.533534 -80.844709 254 35983ft 427kts
14-May-11 09:12 38.504977 -80.991686 254 35981ft 427kts
14-May-11 09:13 38.476213 -81.138493 254 35980ft 426kts
14-May-11 09:14 38.447175 -81.285799 254 35978ft 427kts
14-May-11 09:15 38.418072 -81.432313 254 35976ft 426kts
14-May-11 09:16 38.389923 -81.572132 253 35985ft 426kts
14-May-11 09:17 38.361006 -81.714403 254 35984ft 427kts
14-May-11 09:18 38.325683 -81.856831 249 35989ft 426kts
14-May-11 09:19 38.285759 -81.999044 249 35987ft 426kts
14-May-11 09:20 38.245698 -82.141396 249 35985ft 426kts
14-May-11 09:21 38.205674 -82.282847 249 35983ft 426kts
14-May-11 09:22 38.165314 -82.424741 249 35981ft 426kts
14-May-11 09:23 38.126671 -82.559661 248 35988ft 426kts
14-May-11 09:24 38.085665 -82.701040 249 35988ft 426kts
14-May-11 09:25 38.044834 -82.842292 249 35987ft 426kts
14-May-11 09:26 38.003835 -82.983462 249 35985ft 426kts
14-May-11 09:27 37.962604 -83.124605 249 35983ft 426kts
14-May-11 09:28 37.921367 -83.265188 249 35981ft 426kts
14-May-11 09:29 37.879799 -83.406022 249 35980ft 426kts
14-May-11 09:30 37.839606 -83.541619 248 35979ft 426kts
14-May-11 09:31 37.797724 -83.680694 248 35987ft 426kts
14-May-11 09:32 37.755750 -83.820752 248 35985ft 426kts
14-May-11 09:33 37.713558 -83.960881 248 35983ft 426kts
14-May-11 09:34 37.671384 -84.100281 248 35982ft 426kts
14-May-11 09:35 37.628936 -84.239783 248 35980ft 426kts
14-May-11 09:36 37.586068 -84.379965 248 35978ft 426kts
14-May-11 09:37 37.543332 -84.518998 248 35976ft 426kts
14-May-11 09:38 37.502055 -84.651325 248 35985ft 426kts
14-May-11 09:39 37.459168 -84.789473 248 35983ft 426kts
14-May-11 09:40 37.416153 -84.927578 248 35982ft 426kts
14-May-11 09:41 37.373057 -85.065196 248 35980ft 426kts
14-May-11 09:42 37.331740 -85.196447 248 35985ft 426kts
14-May-11 09:43 37.288469 -85.333226 248 35983ft 426kts
14-May-11 09:44 37.245222 -85.469302 248 35981ft 426kts
14-May-11 09:45 37.210581 -85.577260 247 35990ft 426kts
14-May-11 09:46 37.166624 -85.713596 248 35989ft 427kts
14-May-11 09:47 37.122482 -85.850622 248 35987ft 426kts
14-May-11 09:48 37.078062 -85.987894 248 35985ft 426kts
14-May-11 09:49 37.033537 -86.124844 248 35983ft 426kts
14-May-11 09:50 36.988836 -86.261679 248 35982ft 426kts
14-May-11 09:51 36.944064 -86.398085 248 35980ft 426kts
14-May-11 09:52 36.896726 -86.534170 246 35978ft 426kts
14-May-11 09:54 36.803096 -86.792902 245 35985ft 427kts
14-May-11 09:55 36.754389 -86.927369 245 35984ft 426kts
14-May-11 09:56 36.705381 -87.062084 246 35982ft 426kts
14-May-11 09:57 36.656211 -87.196605 246 35980ft 426kts
14-May-11 09:58 36.606683 -87.331558 245 35979ft 426kts
14-May-11 09:59 36.557372 -87.465339 246 35977ft 426kts
14-May-11 10:00 36.509624 -87.593549 245 35986ft 426kts
14-May-11 10:01 36.459627 -87.727512 245 35985ft 427kts
14-May-11 10:02 36.409770 -87.860978 245 35983ft 427kts
14-May-11 10:03 36.360956 -87.991143 245 35981ft 427kts
14-May-11 10:04 36.311148 -88.123356 245 35985ft 427kts
14-May-11 10:05 36.260678 -88.256838 245 35983ft 427kts
14-May-11 10:06 36.210230 -88.389679 245 35981ft 427kts
14-May-11 10:07 36.160217 -88.520800 245 35980ft 427kts
14-May-11 10:08 36.112953 -88.643243 244 35989ft 427kts
14-May-11 10:09 36.062414 -88.774589 245 35987ft 427kts
14-May-11 10:10 36.012018 -88.905153 245 35985ft 427kts
14-May-11 10:11 35.961321 -89.035955 244 35984ft 427kts
14-May-11 10:12 35.910562 -89.166345 245 35982ft 427kts
14-May-11 10:13 35.859400 -89.297303 245 35980ft 427kts
14-May-11 10:14 35.808018 -89.428260 245 35979ft 427kts
14-May-11 10:15 35.758128 -89.554903 244 35973ft 427kts
14-May-11 10:16 35.707500 -89.681825 244 35986ft 427kts
14-May-11 10:17 35.655437 -89.812902 244 35985ft 427kts
14-May-11 10:18 35.603469 -89.943242 244 35983ft 427kts
14-May-11 10:19 35.551068 -90.074206 244 35981ft 427kts
14-May-11 10:20 35.498959 -90.203878 244 35979ft 427kts
14-May-11 10:21 35.446305 -90.334412 244 35978ft 427kts
14-May-11 10:22 35.393448 -90.464881 244 35976ft 427kts
14-May-11 10:23 35.344256 -90.585472 243 35990ft 427kts
14-May-11 10:24 35.290894 -90.715476 244 35989ft 428kts
14-May-11 10:25 35.237623 -90.845468 244 35987ft 428kts
14-May-11 10:26 35.184241 -90.975272 244 35986ft 427kts
14-May-11 10:28 35.085785 -91.213282 244 35982ft 427kts
14-May-11 10:29 35.032047 -91.342482 244 35980ft 427kts
14-May-11 10:30 34.978093 -91.471694 244 35979ft 427kts
14-May-11 10:31 34.926827 -91.593496 243 35988ft 427kts
14-May-11 10:32 34.873317 -91.720150 243 35987ft 428kts
14-May-11 10:33 34.819003 -91.848731 243 35985ft 428kts
14-May-11 10:34 34.764431 -91.977467 244 35983ft 427kts
14-May-11 10:35 34.710307 -92.104690 243 35982ft 428kts
14-May-11 10:36 34.663097 -92.236543 252 35987ft 426kts
14-May-11 10:37 34.627765 -92.372210 252 35978ft 427kts
14-May-11 10:38 34.591551 -92.509859 252 35977ft 427kts
14-May-11 10:39 34.556513 -92.641005 251 35986ft 427kts
14-May-11 10:40 34.519974 -92.778139 251 35985ft 427kts
14-May-11 10:41 34.483270 -92.915437 252 35983ft 427kts
14-May-11 10:42 34.446462 -93.052447 252 35981ft 427kts
14-May-11 10:43 34.409479 -93.189454 252 35980ft 427kts
14-May-11 10:44 34.372377 -93.326225 252 35978ft 427kts
14-May-11 10:45 34.336580 -93.457455 252 35980ft 427kts
14-May-11 10:46 34.300730 -93.587884 251 35988ft 427kts
14-May-11 10:47 34.262900 -93.724260 251 35988ft 428kts
14-May-11 10:48 34.225193 -93.860508 251 35986ft 428kts
14-May-11 10:49 34.187347 -93.996659 251 35985ft 427kts
14-May-11 10:50 34.149376 -94.132518 251 35983ft 427kts
14-May-11 10:51 34.111106 -94.268856 251 35369ft 430kts
14-May-11 10:52 34.073208 -94.403215 251 33774ft 417kts
14-May-11 10:53 34.036367 -94.533197 251 31987ft 403kts
14-May-11 10:54 34.001818 -94.653351 251 30325ft 392kts
14-May-11 10:55 33.966819 -94.775563 251 28596ft 379kts
14-May-11 10:56 33.932923 -94.893627 251 26858ft 367kts
14-May-11 10:57 33.900132 -95.007337 251 25120ft 355kts
14-May-11 10:58 33.869137 -95.114448 251 23423ft 345kts
14-May-11 10:59 33.837852 -95.222128 251 21661ft 338kts
14-May-11 11:00 33.806999 -95.327958 251 19894ft 332kts
14-May-11 11:02 33.746920 -95.532962 252 16362ft 319kts
14-May-11 11:03 33.718495 -95.628403 251 14701ft 314kts
14-May-11 11:04 33.689436 -95.726369 251 12988ft 310kts
14-May-11 11:05 33.660736 -95.823105 251 11271ft 306kts
14-May-11 11:06 33.632177 -95.919069 251 10832ft 304kts
14-May-11 11:07 33.603669 -96.014527 252 10831ft 305kts
14-May-11 11:08 33.574910 -96.110542 251 10827ft 299kts
14-May-11 11:09 33.549342 -96.195596 252 10830ft 264kts
14-May-11 11:10 33.509621 -96.268557 228 10831ft 270kts
14-May-11 11:11 33.465071 -96.321212 228 10829ft 270kts
14-May-11 11:12 33.411873 -96.384554 228 10828ft 271kts
14-May-11 11:13 33.352096 -96.455681 228 10828ft 270kts
14-May-11 11:14 33.307893 -96.508213 229 10828ft 271kts
14-May-11 11:15 33.256754 -96.568872 228 10830ft 271kts
14-May-11 11:16 33.204011 -96.630768 228 10825ft 261kts
14-May-11 11:17 33.130858 -96.666942 203 10834ft 246kts
14-May-11 11:18 33.077512 -96.687233 203 10833ft 247kts
14-May-11 11:19 33.012125 -96.712110 203 10836ft 246kts
14-May-11 11:20 32.951151 -96.734706 203 10834ft 222kts
14-May-11 11:21 32.891686 -96.756548 203 10326ft 224kts
14-May-11 11:22 32.835686 -96.779129 203 8507ft 206kts
14-May-11 11:23 32.783893 -96.804435 203 7013ft 201kts
14-May-11 11:24 32.733014 -96.832145 203 6006ft 202kts
14-May-11 11:25 32.682133 -96.861462 203 4996ft 204kts
14-May-11 11:26 32.640316 -96.901926 268 4827ft 218kts
14-May-11 11:27 32.654861 -96.968709 285 4820ft 195kts
14-May-11 11:28 32.673690 -97.029000 313 4799ft 199kts
14-May-11 11:29 32.726049 -97.032677 5 3935ft 178kts
14-May-11 11:30 32.773682 -97.030857 3 2698ft 168kts
14-May-11 11:31 32.817309 -97.030324 3 1820ft 146kts
14-May-11 11:32 32.857609 -97.030098 5 1070ft 145kts
14-May-11 11:33 32.897650 -97.030164 9 618ft 136kts
14-May-11 11:34 32.910076 -97.030881 273 617ft 37kts
14-May-11 11:35 32.907194 -97.036340 212 617ft 0kts
14-May-11 11:36 32.907194 -97.036340 212 617ft 0kts

Navigation Log

Ident Type
1. KBOS Airport
2. GLYDE Fix
3. BAF Navaid
4. BIGGO Fix
5. GANDE Fix
6. SAX Navaid
7. BYP Navaid
8. KARLA Fix
9. COVIE Fix
10. LEMYN Fix
11. KDFW Airport